Kingville, Alabama
Current Conditions -  °F | °C
As of 6:43 AM on Sunday 23 Nov 2014 (Local Time) from KCBM Reporting Station
Overcast Overcast  
Wind Chill: 57°   Ceiling: 600
Heat Index: 57°   Visibility: 9mi
Dew Point: 57°   Wind: 10mph
Humidity: 100%   Direction: 130°SE
Pressure: 29.8"   Gusts: NA
Location:  33.5851°N, 88.0494°W
Report Text: KCBM 231243Z AUTO 13009KT 9SM OVC006 14/14 A2980 RMK AO2 $
Loading
Personal Weather Stations






























Interactive Weather Map New forecast layout! Learn more

10-Day Weather Forecast

Advertisements
Track Severe Weather on mobile